createdAt,value
2023-03-05T00:03:03.728Z,1.10
2023-03-05T00:08:25.464Z,1.10
2023-03-05T00:13:47.480Z,1.10
2023-03-05T00:19:10.376Z,1.10
2023-03-05T00:24:32.175Z,1.00
2023-03-05T00:29:53.829Z,1.00
2023-03-05T00:35:15.446Z,0.90
2023-03-05T00:40:42.018Z,0.80
2023-03-05T00:46:04.993Z,0.70
2023-03-05T00:51:27.084Z,0.60
2023-03-05T00:56:49.364Z,0.80
2023-03-05T01:02:11.014Z,0.70
2023-03-05T01:07:32.641Z,0.70
2023-03-05T01:12:55.204Z,0.50
2023-03-05T01:18:17.543Z,0.60
2023-03-05T01:23:39.026Z,0.40
2023-03-05T01:29:01.127Z,0.40
2023-03-05T01:34:22.725Z,0.40
2023-03-05T01:39:44.475Z,0.40
2023-03-05T01:45:12.682Z,0.30
2023-03-05T01:50:34.750Z,0.40
2023-03-05T01:55:56.370Z,0.30
2023-03-05T02:01:18.688Z,0.30
2023-03-05T02:06:41.691Z,0.30
2023-03-05T02:12:03.285Z,0.30
2023-03-05T02:17:26.897Z,0.30
2023-03-05T02:22:48.548Z,0.30
2023-03-05T02:28:28.570Z,0.10
2023-03-05T02:33:50.907Z,0.20
2023-03-05T02:39:13.788Z,0.10
2023-03-05T02:44:35.769Z,0.00
2023-03-05T02:49:57.828Z,0.10
2023-03-05T02:55:20.286Z,0.00
2023-03-05T03:00:42.734Z,0.00
2023-03-05T03:06:07.720Z,0.10
2023-03-05T03:11:29.356Z,0.10
2023-03-05T03:16:51.178Z,0.00
2023-03-05T03:22:15.237Z,0.10
2023-03-05T03:27:36.977Z,0.10
2023-03-05T03:32:59.038Z,0.10
2023-03-05T03:38:20.463Z,0.00
2023-03-05T03:43:42.141Z,0.10
2023-03-05T03:49:03.943Z,0.20
2023-03-05T03:54:25.616Z,0.20
2023-03-05T03:59:47.029Z,0.20
2023-03-05T04:05:09.321Z,0.30
2023-03-05T04:10:31.145Z,0.20
2023-03-05T04:15:53.089Z,0.30
2023-03-05T04:21:15.219Z,0.40
2023-03-05T04:26:37.218Z,0.20
2023-03-05T04:31:58.512Z,0.20
2023-03-05T04:37:20.274Z,0.20
2023-03-05T04:42:41.814Z,0.20
2023-03-05T04:48:03.620Z,0.10
2023-03-05T04:53:25.422Z,0.20
2023-03-05T04:58:47.668Z,0.20
2023-03-05T05:04:09.632Z,0.10
2023-03-05T05:09:31.572Z,0.20
2023-03-05T05:14:53.272Z,0.10
2023-03-05T05:20:16.780Z,0.10
2023-03-05T05:25:38.266Z,0.10
2023-03-05T05:30:59.977Z,0.20
2023-03-05T05:36:22.648Z,0.20
2023-03-05T05:41:44.724Z,0.00
2023-03-05T05:47:06.532Z,0.20
2023-03-05T05:52:28.085Z,0.20
2023-03-05T05:57:49.877Z,0.30
2023-03-05T06:03:11.522Z,0.10
2023-03-05T06:08:33.024Z,0.20
2023-03-05T06:13:54.920Z,0.30
2023-03-05T06:19:17.066Z,0.30
2023-03-05T06:24:39.490Z,0.40
2023-03-05T06:30:01.210Z,0.40
2023-03-05T06:35:22.802Z,0.40
2023-03-05T06:40:44.457Z,0.40
2023-03-05T06:46:13.532Z,0.40
2023-03-05T06:51:37.998Z,0.50
2023-03-05T06:56:59.636Z,0.50
2023-03-05T07:02:21.643Z,0.50
2023-03-05T07:07:43.079Z,0.50
2023-03-05T07:13:04.917Z,0.60
2023-03-05T07:18:26.290Z,0.60
2023-03-05T07:23:48.877Z,0.70
2023-03-05T07:29:10.624Z,0.80
2023-03-05T07:34:32.106Z,0.90
2023-03-05T07:39:53.633Z,0.90
2023-03-05T07:45:15.301Z,1.00
2023-03-05T07:50:36.980Z,0.90
2023-03-05T07:55:58.675Z,0.90
2023-03-05T08:01:20.717Z,1.00
2023-03-05T08:06:42.646Z,1.10
2023-03-05T08:12:04.072Z,1.20
2023-03-05T08:17:25.744Z,1.30
2023-03-05T08:22:47.435Z,1.40
2023-03-05T08:28:09.001Z,1.40
2023-03-05T08:33:31.651Z,1.40
2023-03-05T08:38:54.287Z,1.40
2023-03-05T08:44:15.969Z,1.40
2023-03-05T08:49:38.304Z,1.40
2023-03-05T08:54:59.947Z,1.20
2023-03-05T09:00:22.073Z,1.40
2023-03-05T09:05:43.623Z,1.40
2023-03-05T09:11:11.550Z,1.30
2023-03-05T09:16:33.792Z,1.10
2023-03-05T09:21:57.128Z,1.10
2023-03-05T09:27:18.583Z,0.90
2023-03-05T09:32:40.720Z,1.00
2023-03-05T09:38:02.347Z,1.10
2023-03-05T09:43:52.265Z,1.00
2023-03-05T09:49:32.613Z,1.10
2023-03-05T09:54:57.262Z,1.30
2023-03-05T10:00:54.844Z,1.60
2023-03-05T10:06:24.465Z,1.50
2023-03-05T10:12:00.841Z,1.50
2023-03-05T10:17:37.366Z,1.60
2023-03-05T10:23:10.740Z,1.80
2023-03-05T10:28:57.696Z,1.80
2023-03-05T10:34:27.617Z,1.80
2023-03-05T10:40:08.138Z,2.10
2023-03-05T10:45:48.919Z,2.20
2023-03-05T10:51:19.987Z,2.10
2023-03-05T10:56:42.062Z,2.10
2023-03-05T11:02:06.333Z,2.40
2023-03-05T11:07:35.066Z,2.40
2023-03-05T11:12:58.573Z,3.00
2023-03-05T11:18:24.284Z,2.90
2023-03-05T11:24:04.001Z,2.90
2023-03-05T11:29:29.024Z,2.50
2023-03-05T11:34:50.584Z,2.40
2023-03-05T11:40:19.221Z,2.30
2023-03-05T11:45:42.765Z,2.50
2023-03-05T11:51:16.284Z,2.60
2023-03-05T11:56:39.420Z,2.70
2023-03-05T12:02:01.133Z,2.50
2023-03-05T12:07:41.441Z,2.30
2023-03-05T12:13:07.095Z,2.30
2023-03-05T12:18:47.409Z,2.30
2023-03-05T12:24:27.340Z,2.10
2023-03-05T12:29:54.561Z,2.30
2023-03-05T12:35:29.683Z,2.40
2023-03-05T12:40:51.311Z,2.30
2023-03-05T12:46:27.059Z,2.30
2023-03-05T12:51:50.908Z,2.30
2023-03-05T12:57:19.803Z,2.10
2023-03-05T13:02:45.368Z,2.00
2023-03-05T13:08:32.715Z,2.30
2023-03-05T13:13:55.511Z,2.20
2023-03-05T13:19:18.264Z,2.30
2023-03-05T13:24:39.844Z,2.20
2023-03-05T13:30:01.370Z,2.30
2023-03-05T13:35:23.353Z,2.50
2023-03-05T13:40:44.967Z,2.50
2023-03-05T13:46:06.625Z,2.50
2023-03-05T13:51:45.987Z,2.50
2023-03-05T13:57:28.984Z,2.60
2023-03-05T14:02:51.111Z,2.50
2023-03-05T14:08:26.926Z,2.60
2023-03-05T14:13:56.803Z,2.80
2023-03-05T14:19:38.994Z,3.10
2023-03-05T14:25:00.522Z,3.10
2023-03-05T14:30:25.088Z,2.80
2023-03-05T14:35:50.891Z,2.60
2023-03-05T14:41:24.688Z,2.40
2023-03-05T14:46:50.121Z,2.10
2023-03-05T14:52:17.303Z,2.30
2023-03-05T14:57:38.976Z,2.30
2023-03-05T15:03:00.931Z,2.20
2023-03-05T15:08:26.771Z,2.30
2023-03-05T15:13:50.154Z,2.30
2023-03-05T15:19:15.194Z,2.30
2023-03-05T15:24:36.528Z,2.20
2023-03-05T15:29:59.775Z,2.20
2023-03-05T15:35:22.057Z,2.00
2023-03-05T15:40:44.360Z,2.20
2023-03-05T15:46:07.197Z,2.30
2023-03-05T15:51:29.168Z,2.20
2023-03-05T15:56:50.852Z,2.10
2023-03-05T16:02:12.607Z,2.10
2023-03-05T16:07:36.902Z,2.10
2023-03-05T16:13:09.636Z,2.00
2023-03-05T16:18:32.780Z,2.20
2023-03-05T16:23:55.232Z,2.00
2023-03-05T16:29:17.179Z,2.20
2023-03-05T16:34:38.851Z,2.10
2023-03-05T16:40:00.736Z,2.00
2023-03-05T16:45:22.599Z,2.00
2023-03-05T16:50:44.194Z,2.10
2023-03-05T16:56:08.046Z,2.10
2023-03-05T17:01:30.531Z,1.90
2023-03-05T17:06:53.658Z,2.00
2023-03-05T17:12:15.196Z,1.80
2023-03-05T17:17:38.598Z,1.90
2023-03-05T17:23:02.268Z,1.90
2023-03-05T17:28:23.906Z,1.90
2023-03-05T17:33:45.742Z,1.90
2023-03-05T17:39:08.913Z,2.00
2023-03-05T17:44:31.401Z,1.90
2023-03-05T17:49:52.968Z,1.70
2023-03-05T17:55:17.418Z,1.80
2023-03-05T18:00:39.273Z,1.90
2023-03-05T18:06:00.817Z,1.80
2023-03-05T18:11:22.664Z,2.00
2023-03-05T18:16:44.606Z,1.80
2023-03-05T18:22:06.587Z,1.80
2023-03-05T18:27:28.974Z,1.90
2023-03-05T18:32:51.538Z,1.70
2023-03-05T18:38:13.144Z,1.70
2023-03-05T18:43:35.904Z,1.70
2023-03-05T18:48:57.745Z,1.80
2023-03-05T18:54:19.386Z,1.70
2023-03-05T18:59:40.910Z,1.70
2023-03-05T19:05:02.970Z,1.80
2023-03-05T19:10:27.114Z,1.70
2023-03-05T19:15:48.828Z,1.80
2023-03-05T19:21:11.278Z,1.70
2023-03-05T19:26:33.298Z,1.70
2023-03-05T19:31:55.417Z,1.80
2023-03-05T19:37:18.342Z,1.70
2023-03-05T19:42:39.975Z,1.80
2023-03-05T19:48:01.920Z,1.70
2023-03-05T19:53:24.205Z,1.80
2023-03-05T19:58:49.163Z,1.70
2023-03-05T20:04:14.600Z,1.60
2023-03-05T20:09:36.096Z,1.70
2023-03-05T20:14:57.569Z,1.50
2023-03-05T20:20:19.381Z,1.40
2023-03-05T20:25:40.789Z,1.50
2023-03-05T20:31:02.860Z,1.30
2023-03-05T20:36:25.901Z,1.20
2023-03-05T20:41:48.208Z,1.10
2023-03-05T20:47:26.189Z,1.10
2023-03-05T20:52:47.948Z,1.20
2023-03-05T20:58:10.392Z,1.00
2023-03-05T21:03:31.829Z,0.90
2023-03-05T21:08:54.231Z,0.90
2023-03-05T21:14:15.739Z,0.80
2023-03-05T21:19:39.494Z,0.70
2023-03-05T21:25:16.513Z,0.70
2023-03-05T21:30:39.602Z,0.70
2023-03-05T21:36:23.216Z,0.50
2023-03-05T21:41:46.760Z,0.60
2023-03-05T21:47:08.589Z,0.60
2023-03-05T21:52:30.210Z,0.50
2023-03-05T21:57:51.805Z,0.50
2023-03-05T22:03:13.321Z,0.50
2023-03-05T22:08:35.071Z,0.40
2023-03-05T22:13:57.145Z,0.50
2023-03-05T22:19:18.865Z,0.40
2023-03-05T22:24:40.114Z,0.60
2023-03-05T22:30:01.813Z,0.50
2023-03-05T22:35:23.570Z,0.50
2023-03-05T22:40:47.147Z,0.40
2023-03-05T22:46:22.682Z,0.60
2023-03-05T22:51:44.356Z,0.60
2023-03-05T22:57:07.209Z,0.50
2023-03-05T23:02:28.935Z,0.50
2023-03-05T23:07:53.599Z,0.60
2023-03-05T23:13:15.269Z,0.70
2023-03-05T23:18:36.826Z,0.50
2023-03-05T23:23:58.520Z,0.50
2023-03-05T23:29:20.279Z,0.40
2023-03-05T23:34:41.868Z,0.50
2023-03-05T23:40:04.438Z,0.50
2023-03-05T23:45:26.599Z,0.50
2023-03-05T23:50:49.049Z,0.60
2023-03-05T23:56:11.773Z,0.60
